createdAt,value
2018-06-14T00:00:28.371Z,15.97
2018-06-14T00:01:28.594Z,15.92
2018-06-14T00:02:28.823Z,15.94
2018-06-14T00:03:29.052Z,15.91
2018-06-14T00:04:29.283Z,15.90
2018-06-14T00:05:29.511Z,15.91
2018-06-14T00:06:29.740Z,15.91
2018-06-14T00:07:29.963Z,15.88
2018-06-14T00:08:30.188Z,15.92
2018-06-14T00:09:30.420Z,15.91
2018-06-14T00:10:30.649Z,15.84
2018-06-14T00:11:30.875Z,15.94
2018-06-14T00:12:31.103Z,15.84
2018-06-14T00:13:31.333Z,15.83
2018-06-14T00:14:31.561Z,15.94
2018-06-14T00:15:31.790Z,15.84
2018-06-14T00:16:32.018Z,15.86
2018-06-14T00:17:32.261Z,15.79
2018-06-14T00:18:32.476Z,15.76
2018-06-14T00:19:32.696Z,15.80
2018-06-14T00:20:32.938Z,15.88
2018-06-14T00:21:33.162Z,15.91
2018-06-14T00:22:33.392Z,15.79
2018-06-14T00:23:33.646Z,15.77
2018-06-14T00:24:33.850Z,15.77
2018-06-14T00:25:34.072Z,15.68
2018-06-14T00:26:34.310Z,15.76
2018-06-14T00:27:34.537Z,15.84
2018-06-14T00:28:34.757Z,15.79
2018-06-14T00:29:34.997Z,15.76
2018-06-14T00:30:35.217Z,15.83
2018-06-14T00:31:35.440Z,15.77
2018-06-14T00:32:35.678Z,15.79
2018-06-14T00:33:35.906Z,15.83
2018-06-14T00:34:36.135Z,15.86
2018-06-14T00:35:36.371Z,15.84
2018-06-14T00:36:36.591Z,15.76
2018-06-14T00:37:36.821Z,15.84
2018-06-14T00:38:37.050Z,15.82
2018-06-14T00:39:37.286Z,15.77
2018-06-14T00:40:37.509Z,15.83
2018-06-14T00:41:37.739Z,15.73
2018-06-14T00:42:37.965Z,15.76
2018-06-14T00:43:38.196Z,15.62
2018-06-14T00:44:38.425Z,15.44
2018-06-14T00:45:38.657Z,15.62
2018-06-14T00:46:38.885Z,15.42
2018-06-14T00:47:39.104Z,15.47
2018-06-14T00:48:39.346Z,15.51
2018-06-14T00:49:39.555Z,15.61
2018-06-14T00:50:39.784Z,15.57
2018-06-14T00:51:40.015Z,15.67
2018-06-14T00:52:40.244Z,15.76
2018-06-14T00:53:40.474Z,15.68
2018-06-14T00:54:40.702Z,15.70
2018-06-14T00:55:40.927Z,15.68
2018-06-14T00:56:41.153Z,15.76
2018-06-14T00:57:41.386Z,15.75
2018-06-14T00:58:41.611Z,15.70
2018-06-14T00:59:41.848Z,15.65
2018-06-14T01:00:42.067Z,15.75
2018-06-14T01:01:42.301Z,15.70
2018-06-14T01:02:42.526Z,15.70
2018-06-14T01:03:42.751Z,15.75
2018-06-14T01:04:42.984Z,15.68
2018-06-14T01:05:43.207Z,15.75
2018-06-14T01:06:43.439Z,15.79
2018-06-14T01:07:43.667Z,15.68
2018-06-14T01:08:43.886Z,15.73
2018-06-14T01:09:44.126Z,15.70
2018-06-14T01:10:44.352Z,15.76
2018-06-14T01:11:44.575Z,15.62
2018-06-14T01:12:44.809Z,15.70
2018-06-14T01:13:45.037Z,15.64
2018-06-14T01:14:45.262Z,15.70
2018-06-14T01:15:45.490Z,15.75
2018-06-14T01:16:45.718Z,15.68
2018-06-14T01:17:45.949Z,15.70
2018-06-14T01:18:46.179Z,15.68
2018-06-14T01:19:46.403Z,15.68
2018-06-14T01:20:46.627Z,15.77
2018-06-14T01:21:46.861Z,15.61
2018-06-14T01:22:47.093Z,15.64
2018-06-14T01:23:47.330Z,15.73
2018-06-14T01:24:47.551Z,15.61
2018-06-14T01:25:47.774Z,15.58
2018-06-14T01:26:47.998Z,15.65
2018-06-14T01:27:48.228Z,15.59
2018-06-14T01:28:48.451Z,15.62
2018-06-14T01:29:48.685Z,15.62
2018-06-14T01:30:48.910Z,15.55
2018-06-14T01:31:49.135Z,15.61
2018-06-14T01:32:49.388Z,15.58
2018-06-14T01:33:49.591Z,15.58
2018-06-14T01:34:49.821Z,15.68
2018-06-14T01:35:50.052Z,15.61
2018-06-14T01:36:50.280Z,15.64
2018-06-14T01:37:50.510Z,15.65
2018-06-14T01:38:50.737Z,15.54
2018-06-14T01:39:50.970Z,15.67
2018-06-14T01:40:51.197Z,15.57
2018-06-14T01:41:51.431Z,15.64
2018-06-14T01:42:51.655Z,15.55
2018-06-14T01:43:51.885Z,15.57
2018-06-14T01:44:52.115Z,15.49
2018-06-14T01:45:52.355Z,15.59
2018-06-14T01:46:52.567Z,15.51
2018-06-14T01:47:52.810Z,15.51
2018-06-14T01:48:53.028Z,15.61
2018-06-14T01:49:53.258Z,15.54
2018-06-14T01:50:53.493Z,15.59
2018-06-14T01:51:53.713Z,15.57
2018-06-14T01:52:53.942Z,15.57
2018-06-14T01:53:54.178Z,15.51
2018-06-14T01:54:54.393Z,15.51
2018-06-14T01:55:54.628Z,15.55
2018-06-14T01:56:54.849Z,15.49
2018-06-14T01:57:55.087Z,15.46
2018-06-14T01:58:55.315Z,15.42
2018-06-14T01:59:55.542Z,15.43
2018-06-14T02:00:55.770Z,15.54
2018-06-14T02:01:55.998Z,15.46
2018-06-14T02:02:56.230Z,15.51
2018-06-14T02:03:56.450Z,15.51
2018-06-14T02:04:56.685Z,15.51
2018-06-14T02:05:56.915Z,15.46
2018-06-14T02:06:57.138Z,15.37
2018-06-14T02:07:57.367Z,15.47
2018-06-14T02:08:57.597Z,15.46
2018-06-14T02:09:57.823Z,15.49
2018-06-14T02:10:58.052Z,15.52
2018-06-14T02:11:58.278Z,15.43
2018-06-14T02:12:58.512Z,15.43
2018-06-14T02:13:58.740Z,15.40
2018-06-14T02:14:58.967Z,15.44
2018-06-14T02:15:59.195Z,15.51
2018-06-14T02:16:59.413Z,15.43
2018-06-14T02:17:59.641Z,15.39
2018-06-14T02:18:59.868Z,15.42
2018-06-14T02:20:00.095Z,15.46
2018-06-14T02:21:00.322Z,15.44
2018-06-14T02:22:00.551Z,15.39
2018-06-14T02:23:00.781Z,15.42
2018-06-14T02:24:01.014Z,15.39
2018-06-14T02:25:01.234Z,15.39
2018-06-14T02:26:01.473Z,15.35
2018-06-14T02:27:01.689Z,15.33
2018-06-14T02:28:01.930Z,15.33
2018-06-14T02:29:02.159Z,15.31
2018-06-14T02:30:02.401Z,15.28
2018-06-14T02:31:02.609Z,15.31
2018-06-14T02:32:02.837Z,15.31
2018-06-14T02:33:03.067Z,15.35
2018-06-14T02:34:03.295Z,15.25
2018-06-14T02:35:03.525Z,15.27
2018-06-14T02:36:03.755Z,15.17
2018-06-14T02:37:03.984Z,15.22
2018-06-14T02:38:04.213Z,15.15
2018-06-14T02:39:04.450Z,15.06
2018-06-14T02:40:04.677Z,14.99
2018-06-14T02:41:04.906Z,14.96
2018-06-14T02:42:05.135Z,14.92
2018-06-14T02:43:05.361Z,14.86
2018-06-14T02:44:05.588Z,14.82
2018-06-14T02:45:05.846Z,14.77
2018-06-14T02:46:06.078Z,14.91
2018-06-14T02:47:06.300Z,14.89
2018-06-14T02:48:06.524Z,14.92
2018-06-14T02:49:06.756Z,14.92
2018-06-14T02:50:06.998Z,14.92
2018-06-14T02:51:07.221Z,14.96
2018-06-14T02:52:07.453Z,14.88
2018-06-14T02:53:07.670Z,14.92
2018-06-14T02:54:07.901Z,14.92
2018-06-14T02:55:08.137Z,14.81
2018-06-14T02:56:08.365Z,14.92
2018-06-14T02:57:08.589Z,14.88
2018-06-14T02:58:08.814Z,14.86
2018-06-14T02:59:09.042Z,14.70
2018-06-14T03:00:09.271Z,14.77
2018-06-14T03:01:09.499Z,14.65
2018-06-14T03:02:09.735Z,14.54
2018-06-14T03:03:09.965Z,14.30
2018-06-14T03:04:10.183Z,14.14
2018-06-14T03:05:10.412Z,14.23
2018-06-14T03:06:10.641Z,14.14
2018-06-14T03:07:10.870Z,14.15
2018-06-14T03:08:11.101Z,14.17
2018-06-14T03:09:11.331Z,14.25
2018-06-14T03:10:11.562Z,14.20
2018-06-14T03:11:11.793Z,14.20
2018-06-14T03:12:12.022Z,14.22
2018-06-14T03:13:12.237Z,14.14
2018-06-14T03:14:12.477Z,14.04
2018-06-14T03:15:12.707Z,14.11
2018-06-14T03:16:12.933Z,14.03
2018-06-14T03:17:13.166Z,14.04
2018-06-14T03:18:13.396Z,13.95
2018-06-14T03:19:13.626Z,13.93
2018-06-14T03:20:13.847Z,14.00
2018-06-14T03:21:14.077Z,14.03
2018-06-14T03:22:14.310Z,13.99
2018-06-14T03:23:14.538Z,13.92
2018-06-14T03:24:14.767Z,13.99
2018-06-14T03:25:14.996Z,13.97
2018-06-14T03:26:15.223Z,14.03
2018-06-14T03:27:15.450Z,14.03
2018-06-14T03:28:15.676Z,13.99
2018-06-14T03:29:15.897Z,13.96
2018-06-14T03:30:16.132Z,13.96
2018-06-14T03:31:16.360Z,13.83
2018-06-14T03:32:16.589Z,13.79
2018-06-14T03:33:16.815Z,13.77
2018-06-14T03:34:17.057Z,13.75
2018-06-14T03:35:17.274Z,13.79
2018-06-14T03:36:17.505Z,13.92
2018-06-14T03:37:17.733Z,13.93
2018-06-14T03:38:17.963Z,13.71
2018-06-14T03:39:18.190Z,13.90
2018-06-14T03:40:18.419Z,13.85
2018-06-14T03:41:18.648Z,13.75
2018-06-14T03:42:18.876Z,13.86
2018-06-14T03:43:19.101Z,13.93
2018-06-14T03:44:19.330Z,13.95
2018-06-14T03:45:19.559Z,13.96
2018-06-14T03:46:19.797Z,14.18
2018-06-14T03:47:20.017Z,14.36
2018-06-14T03:48:20.247Z,14.43
2018-06-14T03:49:20.476Z,14.53
2018-06-14T03:50:20.706Z,14.50
2018-06-14T03:51:20.935Z,14.54
2018-06-14T03:52:21.152Z,14.53
2018-06-14T03:53:21.403Z,14.55
2018-06-14T03:54:21.619Z,14.55
2018-06-14T03:55:21.854Z,14.55
2018-06-14T03:56:22.075Z,14.58
2018-06-14T03:57:22.303Z,14.55
2018-06-14T03:58:22.547Z,14.59
2018-06-14T03:59:22.768Z,14.60
2018-06-14T04:00:22.998Z,14.60
2018-06-14T04:01:23.227Z,14.60
2018-06-14T04:02:23.450Z,14.65
2018-06-14T04:03:23.682Z,14.58
2018-06-14T04:04:23.906Z,14.55
2018-06-14T04:05:24.138Z,14.63
2018-06-14T04:06:24.371Z,14.60
2018-06-14T04:07:24.599Z,14.66
2018-06-14T04:08:24.838Z,14.68
2018-06-14T04:09:25.053Z,14.63
2018-06-14T04:10:25.320Z,14.77
2018-06-14T04:11:25.517Z,14.72
2018-06-14T04:12:25.740Z,14.82
2018-06-14T04:13:25.966Z,14.81
2018-06-14T04:14:26.194Z,14.86
2018-06-14T04:15:26.428Z,14.88
2018-06-14T04:16:26.653Z,14.78
2018-06-14T04:17:26.886Z,14.86
2018-06-14T04:18:27.122Z,14.91
2018-06-14T04:19:27.343Z,14.82
2018-06-14T04:20:27.580Z,14.77
2018-06-14T04:21:27.812Z,14.63
2018-06-14T04:22:28.034Z,14.78
2018-06-14T04:23:28.269Z,14.62
2018-06-14T04:24:28.492Z,14.86
2018-06-14T04:25:28.723Z,14.89
2018-06-14T04:26:28.950Z,14.91
2018-06-14T04:27:29.228Z,14.89
2018-06-14T04:28:29.411Z,15.02
2018-06-14T04:29:29.635Z,15.19
2018-06-14T04:30:29.864Z,15.31
2018-06-14T04:31:30.093Z,15.51
2018-06-14T04:32:30.323Z,14.99
2018-06-14T04:33:30.552Z,15.07
2018-06-14T04:34:30.776Z,15.22
2018-06-14T04:35:31.006Z,15.73
2018-06-14T04:36:31.237Z,16.42
2018-06-14T04:37:31.467Z,16.68
2018-06-14T04:38:31.695Z,16.94
2018-06-14T04:39:31.927Z,17.38
2018-06-14T04:40:32.159Z,17.52
2018-06-14T04:41:32.384Z,17.76
2018-06-14T04:42:32.617Z,17.86
2018-06-14T04:43:32.848Z,18.15
2018-06-14T04:44:33.084Z,18.70
2018-06-14T04:45:33.303Z,18.95
2018-06-14T04:46:33.543Z,19.31
2018-06-14T04:47:33.774Z,19.76
2018-06-14T04:48:34.005Z,19.84
2018-06-14T04:49:34.236Z,20.32
2018-06-14T04:50:34.473Z,20.84
2018-06-14T04:51:34.704Z,20.95
2018-06-14T04:52:34.939Z,20.81
2018-06-14T04:53:35.214Z,20.99
2018-06-14T04:54:35.394Z,21.12
2018-06-14T04:55:35.634Z,21.51
2018-06-14T04:56:35.865Z,21.79
2018-06-14T04:57:36.099Z,21.37
2018-06-14T04:58:36.336Z,21.50
2018-06-14T04:59:36.567Z,21.52
2018-06-14T05:00:36.802Z,21.73
2018-06-14T05:01:37.033Z,21.96
2018-06-14T05:02:37.276Z,22.23
2018-06-14T05:03:37.500Z,22.47
2018-06-14T05:04:37.728Z,22.73
2018-06-14T05:05:37.966Z,22.80
2018-06-14T05:06:38.201Z,22.90
2018-06-14T05:07:38.435Z,22.80
2018-06-14T05:08:38.670Z,22.72
2018-06-14T05:09:38.906Z,22.39
2018-06-14T05:10:39.142Z,22.44
2018-06-14T05:11:39.381Z,22.63
2018-06-14T05:12:39.610Z,22.91
2018-06-14T05:13:39.867Z,23.36
2018-06-14T05:14:40.073Z,23.84
2018-06-14T05:15:40.306Z,23.95
2018-06-14T05:16:40.543Z,24.01
2018-06-14T05:17:40.779Z,24.35
2018-06-14T05:18:41.024Z,24.91
2018-06-14T05:19:41.255Z,25.26
2018-06-14T05:20:41.490Z,25.41
2018-06-14T05:21:41.726Z,25.21
2018-06-14T05:22:41.962Z,25.73
2018-06-14T05:23:42.200Z,25.85
2018-06-14T05:24:42.435Z,26.23
2018-06-14T05:25:42.676Z,26.44
2018-06-14T05:26:42.908Z,26.33
2018-06-14T05:27:43.144Z,26.29
2018-06-14T05:28:43.382Z,26.55
2018-06-14T05:29:43.675Z,26.33
2018-06-14T05:30:43.867Z,26.74
2018-06-14T05:31:44.101Z,27.02
2018-06-14T05:32:44.335Z,27.36
2018-06-14T05:33:44.575Z,27.58
2018-06-14T05:34:44.821Z,27.32
2018-06-14T05:35:45.048Z,27.08
2018-06-14T05:36:45.287Z,27.11
2018-06-14T05:37:45.514Z,27.52
2018-06-14T05:38:45.767Z,27.77
2018-06-14T05:39:46.016Z,27.30
2018-06-14T05:40:46.245Z,26.81
2018-06-14T05:41:46.488Z,27.32
2018-06-14T05:42:46.722Z,27.32
2018-06-14T05:43:46.960Z,27.39
2018-06-14T05:44:47.200Z,27.18
2018-06-14T05:45:47.436Z,26.78
2018-06-14T05:46:47.677Z,26.74
2018-06-14T05:47:47.958Z,27.10
2018-06-14T05:48:48.175Z,27.22
2018-06-14T05:49:48.383Z,26.88
2018-06-14T05:50:48.620Z,26.40
2018-06-14T05:51:48.860Z,26.73
2018-06-14T05:52:49.099Z,26.71
2018-06-14T05:53:49.335Z,26.78
2018-06-14T05:54:49.574Z,27.40
2018-06-14T05:55:49.809Z,27.51
2018-06-14T05:56:50.048Z,27.30
2018-06-14T05:57:50.298Z,27.37
2018-06-14T05:58:50.535Z,27.20
2018-06-14T05:59:50.769Z,27.44
2018-06-14T06:00:51.015Z,27.39
2018-06-14T06:01:51.259Z,27.30
2018-06-14T06:02:51.535Z,27.64
2018-06-14T06:03:51.732Z,27.64
2018-06-14T06:04:51.968Z,27.58
2018-06-14T06:05:52.208Z,28.20
2018-06-14T06:06:52.447Z,28.54
2018-06-14T06:07:52.687Z,28.39
2018-06-14T06:08:52.929Z,28.70
2018-06-14T06:09:53.169Z,29.14
2018-06-14T06:10:53.404Z,29.24
2018-06-14T06:11:53.645Z,28.79
2018-06-14T06:12:53.885Z,28.75
2018-06-14T06:13:54.125Z,28.20
2018-06-14T06:14:54.365Z,28.02
2018-06-14T06:15:54.600Z,27.77
2018-06-14T06:16:54.848Z,27.20
2018-06-14T06:17:55.076Z,27.25
2018-06-14T06:18:55.315Z,27.32
2018-06-14T06:19:55.612Z,27.44
2018-06-14T06:20:55.802Z,26.97
2018-06-14T06:21:56.034Z,27.21
2018-06-14T06:22:56.275Z,26.70
2018-06-14T06:23:56.514Z,26.75
2018-06-14T06:24:56.755Z,27.07
2018-06-14T06:25:56.985Z,27.05
2018-06-14T06:26:57.234Z,26.77
2018-06-14T06:27:57.476Z,27.33
2018-06-14T06:28:57.718Z,28.10
2018-06-14T06:29:57.958Z,28.56
2018-06-14T06:30:58.203Z,28.66
2018-06-14T06:31:58.440Z,28.42
2018-06-14T06:32:58.678Z,28.19
2018-06-14T06:33:58.914Z,28.20
2018-06-14T06:34:59.159Z,28.33
2018-06-14T06:35:59.402Z,27.49
2018-06-14T06:36:59.639Z,27.15
2018-06-14T06:37:59.882Z,27.35
2018-06-14T06:39:00.123Z,27.73
2018-06-14T06:40:00.364Z,28.25
2018-06-14T06:41:00.601Z,28.44
2018-06-14T06:42:00.847Z,28.07
2018-06-14T06:43:01.089Z,27.30
2018-06-14T06:44:01.333Z,27.37
2018-06-14T06:45:01.632Z,28.04
2018-06-14T06:46:01.811Z,27.87
2018-06-14T06:47:02.056Z,27.39
2018-06-14T06:48:02.293Z,27.59
2018-06-14T06:49:02.525Z,27.36
2018-06-14T06:50:02.767Z,27.10
2018-06-14T06:51:03.006Z,26.80
2018-06-14T06:52:03.245Z,27.27
2018-06-14T06:53:03.494Z,27.87
2018-06-14T06:54:03.721Z,27.90
2018-06-14T06:55:03.966Z,27.40
2018-06-14T06:56:04.209Z,26.96
2018-06-14T06:57:04.443Z,27.11
2018-06-14T06:58:04.675Z,27.33
2018-06-14T06:59:04.917Z,27.22
2018-06-14T07:00:05.156Z,27.20
2018-06-14T07:01:05.392Z,27.11
2018-06-14T07:02:05.637Z,26.80
2018-06-14T07:03:05.878Z,26.45
2018-06-14T07:04:06.125Z,25.83
2018-06-14T07:05:06.351Z,25.72
2018-06-14T07:06:06.686Z,25.73
2018-06-14T07:07:06.825Z,25.93
2018-06-14T07:08:07.065Z,26.21
2018-06-14T07:09:07.307Z,26.23
2018-06-14T07:10:07.549Z,26.10
2018-06-14T07:11:07.785Z,26.29
2018-06-14T07:12:08.021Z,26.16
2018-06-14T07:13:08.252Z,25.87
2018-06-14T07:14:08.491Z,25.29
2018-06-14T07:15:08.726Z,24.91
2018-06-14T07:16:08.961Z,24.55
2018-06-14T07:17:09.201Z,24.70
2018-06-14T07:18:09.441Z,25.10
2018-06-14T07:19:09.678Z,24.55
2018-06-14T07:20:09.914Z,24.29
2018-06-14T07:21:10.155Z,23.99
2018-06-14T07:22:10.393Z,24.23
2018-06-14T07:23:10.625Z,23.91
2018-06-14T07:24:10.862Z,23.55
2018-06-14T07:25:11.103Z,23.31
2018-06-14T07:26:11.343Z,23.47
2018-06-14T07:27:11.572Z,23.34
2018-06-14T07:28:11.814Z,23.40
2018-06-14T07:29:12.046Z,23.54
2018-06-14T07:30:12.286Z,23.50
2018-06-14T07:31:12.520Z,23.50
2018-06-14T07:32:12.767Z,23.50
2018-06-14T07:33:12.991Z,23.32
2018-06-14T07:34:13.228Z,23.12
2018-06-14T07:35:13.464Z,23.13
2018-06-14T07:36:13.693Z,22.93
2018-06-14T07:37:13.935Z,22.66
2018-06-14T07:38:14.171Z,22.78
2018-06-14T07:39:14.401Z,22.88
2018-06-14T07:40:14.642Z,22.93
2018-06-14T07:41:14.873Z,22.80
2018-06-14T07:42:15.106Z,22.69
2018-06-14T07:43:15.337Z,22.75
2018-06-14T07:44:15.571Z,22.68
2018-06-14T07:45:15.811Z,22.55
2018-06-14T07:46:16.037Z,22.59
2018-06-14T07:47:16.268Z,22.51
2018-06-14T07:48:16.507Z,22.54
2018-06-14T07:49:16.737Z,22.35
2018-06-14T07:50:16.972Z,22.36
2018-06-14T07:51:17.208Z,22.26
2018-06-14T07:52:17.446Z,22.17
2018-06-14T07:53:17.677Z,22.17
2018-06-14T07:54:17.913Z,22.15
2018-06-14T07:55:18.151Z,21.95
2018-06-14T07:56:18.390Z,21.89
2018-06-14T07:57:18.622Z,21.92
2018-06-14T07:58:18.856Z,21.82
2018-06-14T07:59:19.086Z,21.91
2018-06-14T08:00:19.317Z,21.80
2018-06-14T08:01:19.551Z,21.88
2018-06-14T08:02:19.788Z,21.80
2018-06-14T08:03:20.020Z,21.80
2018-06-14T08:04:20.255Z,21.75
2018-06-14T08:05:20.487Z,21.89
2018-06-14T08:06:20.721Z,21.67
2018-06-14T08:07:20.957Z,21.70
2018-06-14T08:08:21.186Z,21.75
2018-06-14T08:09:21.421Z,21.76
2018-06-14T08:10:21.654Z,21.92
2018-06-14T08:11:21.885Z,21.83
2018-06-14T08:12:22.140Z,21.75
2018-06-14T08:13:22.352Z,21.82
2018-06-14T08:14:22.585Z,21.80
2018-06-14T08:15:22.821Z,21.82
2018-06-14T08:16:23.054Z,21.83
2018-06-14T08:17:23.290Z,21.88
2018-06-14T08:18:23.521Z,21.92
2018-06-14T08:19:23.759Z,21.69
2018-06-14T08:20:23.992Z,21.67
2018-06-14T08:21:24.226Z,21.76
2018-06-14T08:22:24.454Z,21.69
2018-06-14T08:23:24.687Z,21.85
2018-06-14T08:24:24.923Z,21.70
2018-06-14T08:25:25.152Z,21.88
2018-06-14T08:26:25.386Z,21.88
2018-06-14T08:27:25.619Z,22.02
2018-06-14T08:28:25.850Z,22.20
2018-06-14T08:29:26.084Z,22.22
2018-06-14T08:30:26.320Z,22.43
2018-06-14T08:31:26.550Z,22.55
2018-06-14T08:32:26.786Z,22.68
2018-06-14T08:33:27.014Z,22.75
2018-06-14T08:34:27.252Z,22.72
2018-06-14T08:35:27.487Z,22.81
2018-06-14T08:36:27.722Z,22.87
2018-06-14T08:37:27.955Z,22.91
2018-06-14T08:38:28.193Z,23.09
2018-06-14T08:39:28.465Z,23.27
2018-06-14T08:40:28.658Z,23.12
2018-06-14T08:41:28.886Z,23.34
2018-06-14T08:42:29.119Z,23.32
2018-06-14T08:43:29.352Z,23.15
2018-06-14T08:44:29.587Z,23.31
2018-06-14T08:45:29.819Z,23.32
2018-06-14T08:46:30.053Z,23.54
2018-06-14T08:47:30.288Z,23.73
2018-06-14T08:48:30.524Z,23.83
2018-06-14T08:49:30.761Z,23.69
2018-06-14T08:50:30.986Z,23.81
2018-06-14T08:51:31.221Z,23.87
2018-06-14T08:52:31.453Z,23.81
2018-06-14T08:53:31.689Z,23.76
2018-06-14T08:54:31.922Z,23.86
2018-06-14T08:55:32.155Z,23.73
2018-06-14T08:56:32.388Z,23.68
2018-06-14T08:57:32.626Z,23.47
2018-06-14T08:58:32.861Z,23.55
2018-06-14T08:59:33.089Z,23.48
2018-06-14T09:00:33.323Z,23.46
2018-06-14T09:01:33.556Z,23.34
2018-06-14T09:02:33.788Z,23.44
2018-06-14T09:03:34.021Z,23.34
2018-06-14T09:04:34.261Z,23.32
2018-06-14T09:05:34.496Z,23.36
2018-06-14T09:06:34.734Z,23.50
2018-06-14T09:07:34.962Z,23.73
2018-06-14T09:08:35.201Z,23.78
2018-06-14T09:09:35.434Z,23.63
2018-06-14T09:10:35.665Z,23.69
2018-06-14T09:11:35.903Z,23.62
2018-06-14T09:12:36.136Z,23.61
2018-06-14T09:13:36.372Z,23.63
2018-06-14T09:14:36.610Z,23.47
2018-06-14T09:15:36.844Z,23.50
2018-06-14T09:16:37.076Z,23.39
2018-06-14T09:17:37.309Z,23.46
2018-06-14T09:18:37.543Z,23.55
2018-06-14T09:19:37.775Z,23.63
2018-06-14T09:20:38.008Z,23.50
2018-06-14T09:21:38.243Z,23.62
2018-06-14T09:22:38.485Z,23.55
2018-06-14T09:23:38.722Z,23.56
2018-06-14T09:24:38.960Z,23.62
2018-06-14T09:25:39.191Z,23.61
2018-06-14T09:26:39.424Z,23.56
2018-06-14T09:27:39.665Z,23.63
2018-06-14T09:28:39.897Z,23.47
2018-06-14T09:29:40.129Z,23.41
2018-06-14T09:30:40.374Z,23.32
2018-06-14T09:31:40.608Z,23.32
2018-06-14T09:32:40.839Z,23.37
2018-06-14T09:33:41.070Z,23.27
2018-06-14T09:34:41.296Z,23.23
2018-06-14T09:35:41.533Z,23.34
2018-06-14T09:36:41.763Z,23.27
2018-06-14T09:37:42.002Z,23.47
2018-06-14T09:38:42.233Z,23.39
2018-06-14T09:39:42.460Z,23.34
2018-06-14T09:40:42.693Z,23.47
2018-06-14T09:41:42.932Z,23.55
2018-06-14T09:42:43.162Z,23.63
2018-06-14T09:43:43.404Z,23.63
2018-06-14T09:44:43.627Z,23.74
2018-06-14T09:45:43.861Z,23.69
2018-06-14T09:46:44.096Z,23.69
2018-06-14T09:47:44.328Z,23.78
2018-06-14T09:48:44.563Z,24.13
2018-06-14T09:49:44.794Z,24.08
2018-06-14T09:50:45.026Z,24.16
2018-06-14T09:51:45.261Z,24.16
2018-06-14T09:52:45.496Z,24.32
2018-06-14T09:53:45.727Z,24.17
2018-06-14T09:54:45.958Z,24.11
2018-06-14T09:55:46.190Z,24.16
2018-06-14T09:56:46.425Z,24.10
2018-06-14T09:57:46.659Z,24.21
2018-06-14T09:58:46.886Z,24.23
2018-06-14T09:59:47.127Z,24.28
2018-06-14T10:00:47.360Z,24.26
2018-06-14T10:01:47.593Z,24.36
2018-06-14T10:02:47.831Z,24.43
2018-06-14T10:03:48.063Z,24.39
2018-06-14T10:04:48.297Z,24.43
2018-06-14T10:05:48.529Z,24.60
2018-06-14T10:06:48.766Z,24.70
2018-06-14T10:07:49.001Z,24.78
2018-06-14T10:08:49.235Z,24.99
2018-06-14T10:09:49.471Z,24.88
2018-06-14T10:10:49.708Z,24.89
2018-06-14T10:11:49.940Z,25.04
2018-06-14T10:12:50.176Z,25.11
2018-06-14T10:13:50.409Z,25.06
2018-06-14T10:14:50.644Z,24.81
2018-06-14T10:15:50.883Z,24.89
2018-06-14T10:16:51.117Z,24.60
2018-06-14T10:17:51.356Z,24.78
2018-06-14T10:18:51.586Z,24.99
2018-06-14T10:19:51.824Z,25.17
2018-06-14T10:20:52.063Z,25.31
2018-06-14T10:21:52.344Z,25.38
2018-06-14T10:22:52.525Z,25.58
2018-06-14T10:23:52.764Z,25.55
2018-06-14T10:24:52.998Z,25.59
2018-06-14T10:25:53.229Z,25.69
2018-06-14T10:26:53.466Z,25.73
2018-06-14T10:27:53.699Z,25.81
2018-06-14T10:28:53.945Z,25.73
2018-06-14T10:29:54.170Z,25.70
2018-06-14T10:30:54.407Z,25.75
2018-06-14T10:31:54.644Z,25.65
2018-06-14T10:32:54.879Z,25.68
2018-06-14T10:33:55.117Z,25.63
2018-06-14T10:34:55.354Z,25.58
2018-06-14T10:35:55.590Z,25.63
2018-06-14T10:36:55.823Z,25.59
2018-06-14T10:37:56.054Z,25.70
2018-06-14T10:38:56.298Z,25.78
2018-06-14T10:39:56.536Z,25.73
2018-06-14T10:40:56.771Z,25.70
2018-06-14T10:41:57.005Z,25.72
2018-06-14T10:42:57.246Z,25.78
2018-06-14T10:43:57.478Z,25.91
2018-06-14T10:44:58.575Z,25.85
2018-06-14T10:45:57.932Z,25.85
2018-06-14T10:46:58.173Z,25.91
2018-06-14T10:47:58.406Z,25.91
2018-06-14T10:48:58.641Z,25.81
2018-06-14T10:49:58.876Z,25.93
2018-06-14T10:50:59.112Z,25.75
2018-06-14T10:51:59.346Z,25.75
2018-06-14T10:52:59.583Z,25.68
2018-06-14T10:53:59.819Z,25.75
2018-06-14T10:55:00.059Z,25.83
2018-06-14T10:56:00.292Z,25.90
2018-06-14T10:57:00.528Z,25.87
2018-06-14T10:58:00.764Z,25.85
2018-06-14T10:59:01.000Z,25.72
2018-06-14T11:00:01.234Z,25.77
2018-06-14T11:01:01.490Z,25.78
2018-06-14T11:02:01.726Z,25.78
2018-06-14T11:03:01.959Z,25.72
2018-06-14T11:04:02.195Z,25.80
2018-06-14T11:05:02.432Z,25.77
2018-06-14T11:06:02.731Z,25.91
2018-06-14T11:07:02.904Z,26.10
2018-06-14T11:08:03.141Z,25.98
2018-06-14T11:09:03.377Z,25.90
2018-06-14T11:10:03.614Z,25.93
2018-06-14T11:11:03.849Z,25.87
2018-06-14T11:12:04.088Z,25.81
2018-06-14T11:13:04.333Z,25.68
2018-06-14T11:14:04.568Z,25.55
2018-06-14T11:15:04.805Z,25.58
2018-06-14T11:16:05.040Z,25.59
2018-06-14T11:17:05.278Z,25.69
2018-06-14T11:18:05.515Z,25.73
2018-06-14T11:19:05.749Z,25.78
2018-06-14T11:20:05.985Z,25.84
2018-06-14T11:21:06.219Z,25.83
2018-06-14T11:22:06.455Z,25.80
2018-06-14T11:23:06.694Z,25.66
2018-06-14T11:24:06.928Z,25.73
2018-06-14T11:25:07.164Z,25.72
2018-06-14T11:26:07.396Z,25.75
2018-06-14T11:27:07.634Z,25.77
2018-06-14T11:28:07.870Z,25.58
2018-06-14T11:29:08.110Z,25.47
2018-06-14T11:30:08.346Z,25.32
2018-06-14T11:31:08.583Z,25.33
2018-06-14T11:32:08.817Z,25.32
2018-06-14T11:33:09.053Z,25.38
2018-06-14T11:34:09.341Z,25.38
2018-06-14T11:35:09.526Z,25.41
2018-06-14T11:36:09.760Z,25.36
2018-06-14T11:37:09.995Z,25.44
2018-06-14T11:38:10.231Z,25.40
2018-06-14T11:39:10.463Z,25.44
2018-06-14T11:40:10.702Z,25.35
2018-06-14T11:41:10.936Z,25.28
2018-06-14T11:42:11.172Z,25.40
2018-06-14T11:43:11.410Z,25.33
2018-06-14T11:44:11.643Z,25.26
2018-06-14T11:45:11.879Z,25.23
2018-06-14T11:46:12.116Z,25.14
2018-06-14T11:47:12.353Z,25.13
2018-06-14T11:48:12.640Z,25.10
2018-06-14T11:49:12.820Z,25.06
2018-06-14T11:50:13.057Z,25.10
2018-06-14T11:51:13.292Z,24.80
2018-06-14T11:52:13.529Z,24.78
2018-06-14T11:53:13.765Z,24.76
2018-06-14T11:54:14.016Z,24.93
2018-06-14T11:55:14.236Z,24.70
2018-06-14T11:56:14.467Z,24.53
2018-06-14T11:57:14.704Z,24.40
2018-06-14T11:58:14.939Z,24.47
2018-06-14T11:59:15.175Z,24.57
2018-06-14T12:00:15.411Z,24.76
2018-06-14T12:01:15.687Z,24.70
2018-06-14T12:02:15.885Z,24.60
2018-06-14T12:03:16.120Z,24.55
2018-06-14T12:04:16.355Z,24.33
2018-06-14T12:05:16.590Z,24.18
2018-06-14T12:06:16.828Z,24.18
2018-06-14T12:07:17.065Z,24.21
2018-06-14T12:08:17.324Z,24.14
2018-06-14T12:09:17.536Z,24.17
2018-06-14T12:10:17.777Z,24.13
2018-06-14T12:11:18.015Z,24.26
2018-06-14T12:12:18.249Z,24.26
2018-06-14T12:13:18.488Z,24.18
2018-06-14T12:14:18.723Z,24.26
2018-06-14T12:15:18.967Z,24.35
2018-06-14T12:16:19.195Z,24.30
2018-06-14T12:17:19.430Z,24.42
2018-06-14T12:18:19.672Z,24.39
2018-06-14T12:19:19.903Z,24.53
2018-06-14T12:20:20.148Z,24.61
2018-06-14T12:21:20.435Z,24.70
2018-06-14T12:22:20.614Z,24.77
2018-06-14T12:23:20.862Z,24.81
2018-06-14T12:24:21.085Z,24.81
2018-06-14T12:25:21.313Z,24.96
2018-06-14T12:26:21.552Z,24.76
2018-06-14T12:27:21.786Z,24.81
2018-06-14T12:28:22.022Z,24.77
2018-06-14T12:29:22.255Z,24.68
2018-06-14T12:30:22.502Z,24.69
2018-06-14T12:31:22.731Z,24.81
2018-06-14T12:32:22.967Z,24.80
2018-06-14T12:33:23.202Z,24.63
2018-06-14T12:34:23.441Z,24.73
2018-06-14T12:35:23.673Z,24.68
2018-06-14T12:36:23.906Z,24.68
2018-06-14T12:37:24.142Z,24.60
2018-06-14T12:38:24.376Z,24.65
2018-06-14T12:39:24.610Z,24.68
2018-06-14T12:40:24.852Z,24.84
2018-06-14T12:41:25.085Z,24.95
2018-06-14T12:42:25.320Z,25.13
2018-06-14T12:43:25.557Z,25.23
2018-06-14T12:44:25.793Z,25.40
2018-06-14T12:45:26.032Z,25.33
2018-06-14T12:46:26.261Z,25.25
2018-06-14T12:47:26.498Z,25.29
2018-06-14T12:48:26.733Z,25.32
2018-06-14T12:49:26.965Z,25.43
2018-06-14T12:50:27.200Z,25.44
2018-06-14T12:51:27.440Z,25.41
2018-06-14T12:52:27.673Z,25.40
2018-06-14T12:53:27.908Z,25.47
2018-06-14T12:54:28.147Z,25.53
2018-06-14T12:55:28.385Z,25.60